createdAt,value
2023-06-07T00:01:46.915Z,17.13
2023-06-07T00:04:15.343Z,17.31
2023-06-07T00:06:43.826Z,17.44
2023-06-07T00:09:12.408Z,17.48
2023-06-07T00:11:41.000Z,17.09
2023-06-07T00:14:09.108Z,16.64
2023-06-07T00:16:37.133Z,16.30
2023-06-07T00:19:05.315Z,16.03
2023-06-07T00:21:33.788Z,15.81
2023-06-07T00:24:02.016Z,15.62
2023-06-07T00:26:30.339Z,15.52
2023-06-07T00:28:58.924Z,15.88
2023-06-07T00:31:27.026Z,16.31
2023-06-07T00:33:55.217Z,16.60
2023-06-07T00:36:23.349Z,16.82
2023-06-07T00:38:52.030Z,16.98
2023-06-07T00:41:20.240Z,17.10
2023-06-07T00:43:49.208Z,17.21
2023-06-07T00:46:22.086Z,17.30
2023-06-07T00:48:52.867Z,17.29
2023-06-07T00:51:21.524Z,16.87
2023-06-07T00:53:52.304Z,16.40
2023-06-07T00:56:21.640Z,16.02
2023-06-07T00:58:49.725Z,15.74
2023-06-07T01:01:19.351Z,15.50
2023-06-07T01:03:48.177Z,15.37
2023-06-07T01:06:16.593Z,15.70
2023-06-07T01:08:45.372Z,16.11
2023-06-07T01:11:14.714Z,16.39
2023-06-07T01:13:43.588Z,16.59
2023-06-07T01:16:12.674Z,16.73
2023-06-07T01:18:43.894Z,16.84
2023-06-07T01:21:15.168Z,16.94
2023-06-07T01:23:43.554Z,17.02
2023-06-07T01:26:12.434Z,17.09
2023-06-07T01:28:43.395Z,17.07
2023-06-07T01:31:13.291Z,16.64
2023-06-07T01:33:43.704Z,16.15
2023-06-07T01:36:14.623Z,15.76
2023-06-07T01:38:48.038Z,15.44
2023-06-07T01:41:17.439Z,15.27
2023-06-07T01:43:48.825Z,15.57
2023-06-07T01:46:18.014Z,15.97
2023-06-07T01:48:46.258Z,16.24
2023-06-07T01:51:14.347Z,16.43
2023-06-07T01:53:42.916Z,16.57
2023-06-07T01:56:34.763Z,16.68
2023-06-07T01:59:17.272Z,16.78
2023-06-07T02:01:58.887Z,16.85
2023-06-07T02:04:29.913Z,16.92
2023-06-07T02:07:02.941Z,16.89
2023-06-07T02:09:36.434Z,16.43
2023-06-07T02:12:07.496Z,15.92
2023-06-07T02:14:37.544Z,15.54
2023-06-07T02:17:09.780Z,15.24
2023-06-07T02:19:39.666Z,15.06
2023-06-07T02:22:07.987Z,15.37
2023-06-07T02:24:36.151Z,15.75
2023-06-07T02:27:04.977Z,16.02
2023-06-07T02:29:33.055Z,16.21
2023-06-07T02:32:02.222Z,16.35
2023-06-07T02:34:33.897Z,16.46
2023-06-07T02:37:03.860Z,16.56
2023-06-07T02:39:31.967Z,16.62
2023-06-07T02:42:00.167Z,16.70
2023-06-07T02:44:29.452Z,16.77
2023-06-07T02:46:59.668Z,16.85
2023-06-07T02:49:28.056Z,16.92
2023-06-07T02:51:56.505Z,16.99
2023-06-07T02:54:24.685Z,16.97
2023-06-07T02:56:53.166Z,16.56
2023-06-07T02:59:21.374Z,16.07
2023-06-07T03:01:49.539Z,15.70
2023-06-07T03:04:19.930Z,15.42
2023-06-07T03:06:49.949Z,15.27
2023-06-07T03:09:26.523Z,15.61
2023-06-07T03:11:55.222Z,16.03
2023-06-07T03:14:24.822Z,16.33
2023-06-07T03:16:54.345Z,16.54
2023-06-07T03:19:22.921Z,16.70
2023-06-07T03:21:54.962Z,16.84
2023-06-07T03:24:24.795Z,16.96
2023-06-07T03:26:53.898Z,17.07
2023-06-07T03:29:22.266Z,17.17
2023-06-07T03:31:50.354Z,17.27
2023-06-07T03:34:20.042Z,17.36
2023-06-07T03:36:49.058Z,17.45
2023-06-07T03:39:18.536Z,17.45
2023-06-07T03:41:46.819Z,17.05
2023-06-07T03:44:18.579Z,16.58
2023-06-07T03:46:48.007Z,16.23
2023-06-07T03:49:16.541Z,15.97
2023-06-07T03:51:45.542Z,15.85
2023-06-07T03:54:15.089Z,16.18
2023-06-07T03:56:44.067Z,16.61
2023-06-07T03:59:13.751Z,16.93
2023-06-07T04:01:43.413Z,17.16
2023-06-07T04:04:12.374Z,17.34
2023-06-07T04:06:41.162Z,17.50
2023-06-07T04:09:09.745Z,17.65
2023-06-07T04:11:39.942Z,17.79
2023-06-07T04:14:08.013Z,17.93
2023-06-07T04:16:36.816Z,18.08
2023-06-07T04:19:05.187Z,18.31
2023-06-07T04:21:36.324Z,18.77
2023-06-07T04:24:06.023Z,19.66
2023-06-07T04:26:35.233Z,20.75
2023-06-07T04:29:04.134Z,21.53
2023-06-07T04:31:35.940Z,22.21
2023-06-07T04:34:07.174Z,22.82
2023-06-07T04:36:40.629Z,23.10
2023-06-07T04:39:20.071Z,22.86
2023-06-07T04:41:50.564Z,22.39
2023-06-07T04:44:29.213Z,21.87
2023-06-07T04:47:09.030Z,21.35
2023-06-07T04:49:40.241Z,20.99
2023-06-07T04:52:09.440Z,20.98
2023-06-07T04:54:38.282Z,20.87
2023-06-07T04:57:12.422Z,20.61
2023-06-07T04:59:46.096Z,20.30
2023-06-07T05:02:20.111Z,20.04
2023-06-07T05:04:48.806Z,19.81
2023-06-07T05:07:17.398Z,19.59
2023-06-07T05:09:48.679Z,19.53
2023-06-07T05:12:19.128Z,19.55
2023-06-07T05:14:48.039Z,19.44
2023-06-07T05:17:20.793Z,19.31
2023-06-07T05:19:53.173Z,19.18
2023-06-07T05:22:21.927Z,19.06
2023-06-07T05:24:51.323Z,18.97
2023-06-07T05:27:19.439Z,18.92
2023-06-07T05:29:47.528Z,18.90
2023-06-07T05:32:15.699Z,18.86
2023-06-07T05:34:46.805Z,18.84
2023-06-07T05:37:15.942Z,18.81
2023-06-07T05:39:47.208Z,18.78
2023-06-07T05:42:15.460Z,18.76
2023-06-07T05:44:49.657Z,18.74
2023-06-07T05:47:19.120Z,18.73
2023-06-07T05:49:47.794Z,18.73
2023-06-07T05:52:16.986Z,18.75
2023-06-07T05:54:52.908Z,18.75
2023-06-07T05:57:21.402Z,18.77
2023-06-07T05:59:49.475Z,18.78
2023-06-07T06:02:18.143Z,18.81
2023-06-07T06:04:47.430Z,18.85
2023-06-07T06:07:16.997Z,18.89
2023-06-07T06:09:45.354Z,18.93
2023-06-07T06:12:13.823Z,18.98
2023-06-07T06:14:41.997Z,19.01
2023-06-07T06:17:10.327Z,19.04
2023-06-07T06:19:38.450Z,19.09
2023-06-07T06:22:06.922Z,19.13
2023-06-07T06:24:34.892Z,19.17
2023-06-07T06:27:02.999Z,19.22
2023-06-07T06:29:31.974Z,19.27
2023-06-07T06:32:01.900Z,19.32
2023-06-07T06:34:31.353Z,19.37
2023-06-07T06:37:01.287Z,19.43
2023-06-07T06:39:29.564Z,19.49
2023-06-07T06:41:57.640Z,19.55
2023-06-07T06:44:35.752Z,19.60
2023-06-07T06:47:03.934Z,19.65
2023-06-07T06:49:31.915Z,19.72
2023-06-07T06:52:00.036Z,19.79
2023-06-07T06:54:28.032Z,19.87
2023-06-07T06:56:56.157Z,19.95
2023-06-07T06:59:24.044Z,20.03
2023-06-07T07:01:53.462Z,20.10
2023-06-07T07:04:21.589Z,20.18
2023-06-07T07:06:49.561Z,20.27
2023-06-07T07:09:17.624Z,20.37
2023-06-07T07:11:45.658Z,20.43
2023-06-07T07:14:13.622Z,20.52
2023-06-07T07:16:41.842Z,20.60
2023-06-07T07:19:09.890Z,20.69
2023-06-07T07:21:38.839Z,20.76
2023-06-07T07:24:07.569Z,20.84
2023-06-07T07:26:36.800Z,20.91
2023-06-07T07:29:04.798Z,20.99
2023-06-07T07:31:34.795Z,21.06
2023-06-07T07:34:04.292Z,21.14
2023-06-07T07:36:35.252Z,21.21
2023-06-07T07:39:06.537Z,21.30
2023-06-07T07:41:35.532Z,21.38
2023-06-07T07:44:03.899Z,21.47
2023-06-07T07:46:31.856Z,21.59
2023-06-07T07:48:59.871Z,21.72
2023-06-07T07:51:27.785Z,21.84
2023-06-07T07:53:55.735Z,21.92
2023-06-07T07:56:24.109Z,21.99
2023-06-07T07:58:52.148Z,22.06
2023-06-07T08:01:20.719Z,22.14
2023-06-07T08:03:48.959Z,22.24
2023-06-07T08:06:18.205Z,22.40
2023-06-07T08:08:48.019Z,22.61
2023-06-07T08:11:16.292Z,22.81
2023-06-07T08:13:44.248Z,23.01
2023-06-07T08:16:12.464Z,23.19
2023-06-07T08:18:40.516Z,23.31
2023-06-07T08:21:08.537Z,23.37
2023-06-07T08:23:36.791Z,23.48
2023-06-07T08:26:04.973Z,23.65
2023-06-07T08:28:32.867Z,23.87
2023-06-07T08:31:03.062Z,24.13
2023-06-07T08:33:31.370Z,24.43
2023-06-07T08:35:59.252Z,24.70
2023-06-07T08:38:28.371Z,24.89
2023-06-07T08:40:57.578Z,25.00
2023-06-07T08:43:26.581Z,25.04
2023-06-07T08:45:57.225Z,25.01
2023-06-07T08:48:26.386Z,24.97
2023-06-07T08:50:56.364Z,24.94
2023-06-07T08:53:56.828Z,24.98
2023-06-07T08:56:26.485Z,25.03
2023-06-07T08:58:55.199Z,25.07
2023-06-07T09:01:24.732Z,25.09
2023-06-07T09:03:53.313Z,25.13
2023-06-07T09:06:22.814Z,25.16
2023-06-07T09:08:51.119Z,25.19
2023-06-07T09:11:19.158Z,25.27
2023-06-07T09:13:47.740Z,25.35
2023-06-07T09:16:16.548Z,25.41
2023-06-07T09:18:55.162Z,25.46
2023-06-07T09:21:30.181Z,25.50
2023-06-07T09:24:01.926Z,25.54
2023-06-07T09:26:38.399Z,25.57
2023-06-07T09:29:11.048Z,25.62
2023-06-07T09:31:39.333Z,25.64
2023-06-07T09:34:21.788Z,25.66
2023-06-07T09:37:00.038Z,25.68
2023-06-07T09:39:32.840Z,25.70
2023-06-07T09:42:00.756Z,25.73
2023-06-07T09:44:30.329Z,25.74
2023-06-07T09:47:03.172Z,25.76
2023-06-07T09:49:36.421Z,25.78
2023-06-07T09:52:12.635Z,25.79
2023-06-07T09:54:45.886Z,25.80
2023-06-07T09:57:26.188Z,25.78
2023-06-07T09:59:59.674Z,25.75
2023-06-07T10:02:30.285Z,25.77
2023-06-07T10:05:00.808Z,25.79
2023-06-07T10:07:43.308Z,25.83
2023-06-07T10:10:13.087Z,25.87
2023-06-07T10:12:43.020Z,25.91
2023-06-07T10:15:13.664Z,25.96
2023-06-07T10:17:50.154Z,26.03
2023-06-07T10:20:35.095Z,26.05
2023-06-07T10:23:15.209Z,26.02
2023-06-07T10:25:54.367Z,26.00
2023-06-07T10:28:50.203Z,26.04
2023-06-07T10:31:18.980Z,26.14
2023-06-07T10:33:52.199Z,26.22
2023-06-07T10:36:24.965Z,26.28
2023-06-07T10:38:55.536Z,26.29
2023-06-07T10:41:24.079Z,26.28
2023-06-07T10:43:52.324Z,26.29
2023-06-07T10:46:24.498Z,26.30
2023-06-07T10:48:55.202Z,26.30
2023-06-07T10:51:46.232Z,26.32
2023-06-07T10:54:29.461Z,26.38
2023-06-07T10:56:57.914Z,26.45
2023-06-07T10:59:27.408Z,26.52
2023-06-07T11:02:25.577Z,26.60
2023-06-07T11:04:54.824Z,26.64
2023-06-07T11:07:32.099Z,26.66
2023-06-07T11:10:06.240Z,26.73
2023-06-07T11:12:42.415Z,26.84
2023-06-07T11:15:21.644Z,26.97
2023-06-07T11:18:13.576Z,27.08
2023-06-07T11:20:46.015Z,27.25
2023-06-07T11:23:24.239Z,27.32
2023-06-07T11:26:09.795Z,27.36
2023-06-07T11:28:42.551Z,27.40
2023-06-07T11:31:12.601Z,27.45
2023-06-07T11:33:44.515Z,27.52
2023-06-07T11:36:13.237Z,27.64
2023-06-07T11:38:43.251Z,27.78
2023-06-07T11:41:12.066Z,27.93
2023-06-07T11:43:41.243Z,28.03
2023-06-07T11:46:14.656Z,28.13
2023-06-07T11:48:44.710Z,28.23
2023-06-07T11:51:13.248Z,28.29
2023-06-07T11:53:42.483Z,28.35
2023-06-07T11:56:10.857Z,28.44
2023-06-07T11:58:38.800Z,28.52
2023-06-07T12:01:07.849Z,28.55
2023-06-07T12:03:36.173Z,28.59
2023-06-07T12:06:05.828Z,28.62
2023-06-07T12:08:35.671Z,28.68
2023-06-07T12:11:03.741Z,28.72
2023-06-07T12:13:41.851Z,28.74
2023-06-07T12:16:10.131Z,28.79
2023-06-07T12:18:39.740Z,28.89
2023-06-07T12:21:10.434Z,28.99
2023-06-07T12:23:49.168Z,29.13
2023-06-07T12:26:20.567Z,29.28
2023-06-07T12:28:50.356Z,29.39
2023-06-07T12:31:26.850Z,29.43
2023-06-07T12:33:58.481Z,29.41
2023-06-07T12:36:31.895Z,29.29
2023-06-07T12:39:11.227Z,29.19
2023-06-07T12:41:40.099Z,29.14
2023-06-07T12:44:10.922Z,29.09
2023-06-07T12:46:41.495Z,29.08
2023-06-07T12:49:09.724Z,29.10
2023-06-07T12:51:39.016Z,29.11
2023-06-07T12:54:07.102Z,29.10
2023-06-07T12:56:35.869Z,29.11
2023-06-07T12:59:04.425Z,29.17
2023-06-07T13:01:33.193Z,29.28
2023-06-07T13:04:01.859Z,29.43
2023-06-07T13:06:30.197Z,29.64
2023-06-07T13:09:07.871Z,29.85
2023-06-07T13:11:38.285Z,29.97
2023-06-07T13:18:59.887Z,29.81
2023-06-07T13:21:31.929Z,29.76
2023-06-07T13:33:19.938Z,29.35
2023-06-07T13:40:23.946Z,28.92
2023-06-07T13:47:31.164Z,28.42
2023-06-07T13:50:04.172Z,28.26
2023-06-07T13:52:35.969Z,28.11
2023-06-07T13:55:07.963Z,27.97
2023-06-07T13:57:40.036Z,27.84
2023-06-07T14:00:10.936Z,27.72
2023-06-07T14:02:43.282Z,27.61
2023-06-07T14:05:15.363Z,27.52
2023-06-07T14:07:47.011Z,27.43
2023-06-07T14:10:18.991Z,27.39
2023-06-07T14:12:50.039Z,27.37
2023-06-07T14:22:52.573Z,27.45
2023-06-07T14:25:20.752Z,27.40
2023-06-07T14:27:49.007Z,27.31
2023-06-07T14:30:17.780Z,27.20
2023-06-07T14:32:45.939Z,27.07
2023-06-07T14:35:14.142Z,26.92
2023-06-07T14:37:42.410Z,26.78
2023-06-07T14:40:10.995Z,26.63
2023-06-07T14:42:39.472Z,26.50
2023-06-07T14:45:08.572Z,26.37
2023-06-07T14:47:36.987Z,26.24
2023-06-07T14:50:05.735Z,26.11
2023-06-07T14:52:33.819Z,25.99
2023-06-07T14:55:02.083Z,25.89
2023-06-07T14:57:30.263Z,25.81
2023-06-07T14:59:58.338Z,25.76
2023-06-07T15:02:26.452Z,25.72
2023-06-07T15:04:54.778Z,25.73
2023-06-07T15:07:23.082Z,25.78
2023-06-07T15:17:27.015Z,25.88
2023-06-07T15:19:55.295Z,25.84
2023-06-07T15:22:23.870Z,25.78
2023-06-07T15:24:52.086Z,25.72
2023-06-07T15:27:20.650Z,25.67
2023-06-07T15:29:48.804Z,25.66
2023-06-07T15:32:16.909Z,25.66
2023-06-07T15:34:48.975Z,25.67
2023-06-07T15:37:17.319Z,25.65
2023-06-07T15:39:47.354Z,25.61
2023-06-07T15:42:15.614Z,25.57
2023-06-07T15:44:46.581Z,25.48
2023-06-07T15:47:17.276Z,25.39
2023-06-07T15:49:45.565Z,25.32
2023-06-07T15:52:13.570Z,25.29
2023-06-07T15:54:41.811Z,25.32
2023-06-07T15:57:10.384Z,25.33
2023-06-07T15:59:38.369Z,25.32
2023-06-07T16:02:07.697Z,25.30
2023-06-07T16:04:35.903Z,25.25
2023-06-07T16:07:05.432Z,25.23
2023-06-07T16:09:33.639Z,25.22
2023-06-07T16:12:01.687Z,25.22
2023-06-07T16:14:29.958Z,25.21
2023-06-07T16:16:58.083Z,25.22
2023-06-07T16:19:27.224Z,25.25
2023-06-07T16:21:55.265Z,25.32
2023-06-07T16:24:23.568Z,25.44
2023-06-07T16:26:52.167Z,25.55
2023-06-07T16:29:20.223Z,25.65
2023-06-07T16:31:48.337Z,25.75
2023-06-07T16:34:16.527Z,25.84
2023-06-07T16:36:44.673Z,25.90
2023-06-07T16:39:12.922Z,25.97
2023-06-07T16:41:41.907Z,25.98
2023-06-07T16:44:11.518Z,25.95
2023-06-07T16:46:40.370Z,25.91
2023-06-07T16:49:08.455Z,25.85
2023-06-07T16:51:36.704Z,25.79
2023-06-07T16:54:04.861Z,25.73
2023-06-07T16:56:33.003Z,25.64
2023-06-07T16:59:01.083Z,25.55
2023-06-07T17:01:31.762Z,25.46
2023-06-07T17:03:59.976Z,25.35
2023-06-07T17:06:28.362Z,25.25
2023-06-07T17:08:56.634Z,25.13
2023-06-07T17:11:26.459Z,24.98
2023-06-07T17:13:54.833Z,24.84
2023-06-07T17:16:23.068Z,24.72
2023-06-07T17:18:51.278Z,24.60
2023-06-07T17:21:19.959Z,24.49
2023-06-07T17:23:48.408Z,24.38
2023-06-07T17:26:16.648Z,24.26
2023-06-07T17:28:45.099Z,24.14
2023-06-07T17:31:13.349Z,24.02
2023-06-07T17:41:16.641Z,23.67
2023-06-07T17:43:45.274Z,23.58
2023-06-07T17:46:13.545Z,23.50
2023-06-07T17:48:41.984Z,23.41
2023-06-07T17:51:10.056Z,23.31
2023-06-07T17:53:39.439Z,23.22
2023-06-07T17:56:09.966Z,23.13
2023-06-07T17:58:38.032Z,23.03
2023-06-07T18:01:07.152Z,22.93
2023-06-07T18:03:37.437Z,22.83
2023-06-07T18:06:05.870Z,22.74
2023-06-07T18:08:35.773Z,22.63
2023-06-07T18:11:03.928Z,22.53
2023-06-07T18:13:31.930Z,22.43
2023-06-07T18:15:59.983Z,22.32
2023-06-07T18:18:28.253Z,22.22
2023-06-07T18:20:56.610Z,22.11
2023-06-07T18:23:24.737Z,22.00
2023-06-07T18:25:53.093Z,21.89
2023-06-07T18:28:21.676Z,21.79
2023-06-07T18:30:49.946Z,21.69
2023-06-07T18:33:18.305Z,21.58
2023-06-07T18:35:46.506Z,21.47
2023-06-07T18:38:14.668Z,21.37
2023-06-07T18:40:42.821Z,21.27
2023-06-07T18:43:12.540Z,21.17
2023-06-07T18:45:40.815Z,21.07
2023-06-07T18:48:09.079Z,20.96
2023-06-07T18:50:38.193Z,20.87
2023-06-07T18:53:06.453Z,20.77
2023-06-07T18:55:34.627Z,20.67
2023-06-07T18:58:02.924Z,20.57
2023-06-07T19:00:31.386Z,20.48
2023-06-07T19:02:59.751Z,20.38
2023-06-07T19:05:28.764Z,20.28
2023-06-07T19:07:56.844Z,20.18
2023-06-07T19:10:24.939Z,20.09
2023-06-07T19:12:53.078Z,20.00
2023-06-07T19:15:21.198Z,19.91
2023-06-07T19:17:49.382Z,19.82
2023-06-07T19:20:19.128Z,19.74
2023-06-07T19:22:47.512Z,19.66
2023-06-07T19:25:15.882Z,19.57
2023-06-07T19:27:44.160Z,19.48
2023-06-07T19:30:13.750Z,19.40
2023-06-07T19:32:42.350Z,19.31
2023-06-07T19:35:11.093Z,19.23
2023-06-07T19:37:40.141Z,19.15
2023-06-07T19:40:10.255Z,19.07
2023-06-07T19:42:39.141Z,18.98
2023-06-07T19:45:09.015Z,18.89
2023-06-07T19:47:39.892Z,18.80
2023-06-07T19:50:11.111Z,18.72
2023-06-07T19:52:41.368Z,18.65
2023-06-07T19:55:09.836Z,18.58
2023-06-07T19:57:38.157Z,18.50
2023-06-07T20:00:08.823Z,18.43
2023-06-07T20:02:41.758Z,18.41
2023-06-07T20:05:11.496Z,18.84
2023-06-07T20:07:40.140Z,19.35
2023-06-07T20:10:09.353Z,19.72
2023-06-07T20:12:37.982Z,19.90
2023-06-07T20:15:06.910Z,19.64
2023-06-07T20:17:35.846Z,19.28
2023-06-07T20:20:04.958Z,19.01
2023-06-07T20:22:34.702Z,18.78
2023-06-07T20:25:03.948Z,18.61
2023-06-07T20:27:32.588Z,18.47
2023-06-07T20:30:01.603Z,18.34
2023-06-07T20:32:30.044Z,18.23
2023-06-07T20:35:00.542Z,18.11
2023-06-07T20:37:28.960Z,17.99
2023-06-07T20:39:57.089Z,17.96
2023-06-07T20:42:25.281Z,18.35
2023-06-07T20:44:54.248Z,18.82
2023-06-07T20:47:22.710Z,19.18
2023-06-07T20:49:52.543Z,19.42
2023-06-07T20:52:21.390Z,19.61
2023-06-07T20:54:49.663Z,19.67
2023-06-07T20:57:18.139Z,19.32
2023-06-07T20:59:47.262Z,18.89
2023-06-07T21:02:15.719Z,18.54
2023-06-07T21:04:44.038Z,18.30
2023-06-07T21:07:12.905Z,18.09
2023-06-07T21:09:41.470Z,17.97
2023-06-07T21:12:10.028Z,18.28
2023-06-07T21:14:38.400Z,18.71
2023-06-07T21:17:07.760Z,19.04
2023-06-07T21:19:35.937Z,19.26
2023-06-07T21:22:05.414Z,19.41
2023-06-07T21:24:33.589Z,19.53
2023-06-07T21:27:01.869Z,19.55
2023-06-07T21:29:30.161Z,19.16
2023-06-07T21:31:58.609Z,18.68
2023-06-07T21:34:27.342Z,18.33
2023-06-07T21:36:55.882Z,18.06
2023-06-07T21:39:24.164Z,17.90
2023-06-07T21:41:53.046Z,18.19
2023-06-07T21:44:24.478Z,18.58
2023-06-07T21:46:53.596Z,18.86
2023-06-07T21:49:21.707Z,19.07
2023-06-07T21:51:49.841Z,19.20
2023-06-07T21:54:18.017Z,19.29
2023-06-07T21:56:46.391Z,19.37
2023-06-07T21:59:14.694Z,19.43
2023-06-07T22:01:43.032Z,19.48
2023-06-07T22:04:11.551Z,19.53
2023-06-07T22:06:39.910Z,19.57
2023-06-07T22:09:08.300Z,19.52
2023-06-07T22:11:42.245Z,19.07
2023-06-07T22:14:14.661Z,18.53
2023-06-07T22:16:46.097Z,18.12
2023-06-07T22:19:16.030Z,17.81
2023-06-07T22:21:44.102Z,17.63
2023-06-07T22:24:12.568Z,17.91
2023-06-07T22:26:40.792Z,18.27
2023-06-07T22:29:09.456Z,18.51
2023-06-07T22:31:38.077Z,18.67
2023-06-07T22:34:07.194Z,18.77
2023-06-07T22:36:41.781Z,18.86
2023-06-07T22:39:13.158Z,18.93
2023-06-07T22:41:44.857Z,19.00
2023-06-07T22:44:14.063Z,19.05
2023-06-07T22:46:42.285Z,19.08
2023-06-07T22:49:12.880Z,19.12
2023-06-07T22:51:42.434Z,19.14
2023-06-07T22:54:11.067Z,19.16
2023-06-07T22:56:39.051Z,19.16
2023-06-07T23:06:49.318Z,19.09
2023-06-07T23:09:18.629Z,18.59
2023-06-07T23:11:50.343Z,18.06
2023-06-07T23:14:18.561Z,17.62
2023-06-07T23:16:47.075Z,17.36
2023-06-07T23:19:16.779Z,17.56
2023-06-07T23:21:48.488Z,17.87
2023-06-07T23:24:22.830Z,18.07
2023-06-07T23:26:53.456Z,18.19
2023-06-07T23:29:22.363Z,18.27
2023-06-07T23:31:50.740Z,18.32
2023-06-07T23:34:18.911Z,18.36
2023-06-07T23:36:46.976Z,18.38
2023-06-07T23:39:16.094Z,18.41
2023-06-07T23:41:44.262Z,18.42
2023-06-07T23:44:27.334Z,18.43
2023-06-07T23:46:55.980Z,18.43
2023-06-07T23:49:32.664Z,18.43
2023-06-07T23:52:01.914Z,18.44
2023-06-07T23:54:30.191Z,18.43
2023-06-07T23:56:58.285Z,18.43
2023-06-07T23:59:26.940Z,18.43
